Rockwall's Hourly Summary for Friday, July 6, 2018
Hour Temp
(f)
RH
(%)
Solar Rad.
(MJ/m2)
Rainfall
(in)
Wind
(mph)
7/6/2018 12:00 AM 80 74 0 0 0.74
7/6/2018 1:00 AM 79 76 0 0 0.55
7/6/2018 2:00 AM 78 79 0 0 0.05
7/6/2018 3:00 AM 78 80 0 0 0
7/6/2018 4:00 AM 78 81 0 0 0
7/6/2018 5:00 AM 77 82 0 0 0.11
7/6/2018 6:00 AM 77 83 0 0 0.22
7/6/2018 7:00 AM 76 86 0.05 0 0.71
7/6/2018 8:00 AM 78 78 0.56 0 1.99
7/6/2018 9:00 AM 82 69 1.19 0 1.87
7/6/2018 10:00 AM 85 64 1.79 0 2.74
7/6/2018 11:00 AM 88 58 1.48 0 2.53
7/6/2018 12:00 PM 90 51 1.9 0 2.59
7/6/2018 1:00 PM 91 49 1.59 0.02 3.4
7/6/2018 2:00 PM 86 57 1.17 0 2.92
7/6/2018 3:00 PM 81 58 0.6 0.46 4.58
7/6/2018 4:00 PM 74 95 0.36 0.06 0.34
7/6/2018 5:00 PM 79 71 1.33 0 1.86
7/6/2018 6:00 PM 80 67 0.8 0 3.4
7/6/2018 7:00 PM 80 71 0.41 0 1.62
7/6/2018 8:00 PM 80 71 0.18 0 1.41
7/6/2018 9:00 PM 79 74 0.01 0 1.26
7/6/2018 10:00 PM 78 78 0 0 1.52
7/6/2018 11:00 PM 78 74 0 0 2.27
Data Summary 80 71 13.42 0.54 1.61